Time;durP1;ratioP1;P1;durP2;ratioP2;P2;SDS_P1;SDS_P2;PMS_P1;PMS_P2;Temp;Humidity;BMP_temperature;BMP_pressure;BME280_temperature;BME280_humidity;BME280_pressure;Samples;Min_cycle;Max_cycle;Signal;HPM_P1;HPM_P2
2023/01/04 00:00:01;;;;;;;;;;;6.00;99.90;6.30;101079.00;;;;347458;28;83462;-89
2023/01/04 00:00:14;;;;;;;;;;;5.90;99.90;6.30;101081.00;;;;343051;28;90752;-89
2023/01/04 00:00:26;;;;;;;;;;;6.00;99.90;6.40;101083.00;;;;343382;28;82600;-89
2023/01/04 00:00:38;;;;;;;;;;;6.00;99.90;6.50;101086.00;;;;341546;28;89700;-89
2023/01/04 00:00:49;;;;;;;;;;;6.00;99.90;6.60;101072.00;;;;347529;28;83490;-89
2023/01/04 00:01:05;;;;;;;;;;;6.00;99.90;6.60;101076.00;;;;345745;28;90289;-89
2023/01/04 00:01:19;;;;;;;;;;;6.00;99.90;6.60;101083.00;;;;343253;28;83470;-89
2023/01/04 00:01:31;;;;;;;;;;;6.00;99.90;6.60;101079.00;;;;345674;28;91696;-89
2023/01/04 00:01:42;;;;;;;;;;;6.00;99.90;6.70;101078.00;;;;346127;28;83334;-89
2023/01/04 00:01:54;;;;;;;;;;;6.00;99.90;6.70;101073.00;;;;345587;28;91562;-89
2023/01/04 00:02:06;;;;;;;;;;;6.00;99.90;6.80;101067.00;;;;344775;28;83447;-89
2023/01/04 00:02:18;;;;;;;;;;;6.00;99.90;6.80;101068.00;;;;342921;28;91488;-89
2023/01/04 00:02:30;;;;;;;;;;;6.00;99.90;6.70;101080.00;;;;345820;28;83521;-89
2023/01/04 00:02:42;;;;;;;;;;;6.00;99.90;6.80;101068.00;;;;345760;28;90017;-89
2023/01/04 00:02:54;;;;;;;;;;;6.00;99.90;6.70;101069.00;;;;343401;28;83441;-89
2023/01/04 00:03:06;;;;;;;;;;;6.00;99.90;6.60;101078.00;;;;343064;28;92590;-89
2023/01/04 00:03:18;;;;;;;;;;;6.00;99.90;6.50;101071.00;;;;346043;28;82562;-89
2023/01/04 00:03:30;;;;;;;;;;;6.00;99.90;6.50;101080.00;;;;344113;28;90265;-89
2023/01/04 00:03:43;;;;;;;;;;;6.00;99.90;6.60;101069.00;;;;344827;28;83266;-89
2023/01/04 00:03:55;;;;;;;;;;;6.10;99.90;6.60;101071.00;;;;347028;28;91483;-89
2023/01/04 00:04:08;;;;;;;;;;;6.00;99.90;6.50;101067.00;;;;346159;28;83386;-89
2023/01/04 00:04:20;;;;;;;;;;;6.00;99.90;6.50;101069.00;;;;345694;28;91380;-89
2023/01/04 00:04:31;;;;;;;;;;;6.00;99.90;6.60;101077.00;;;;344839;28;83373;-89
2023/01/04 00:04:43;;;;;;;;;;;6.00;99.90;6.70;101069.00;;;;344186;28;92034;-89
2023/01/04 00:04:55;;;;;;;;;;;6.10;99.90;6.70;101066.00;;;;347450;28;83535;-89
2023/01/04 00:05:07;;;;;;;;;;;6.00;99.90;6.60;101067.00;;;;345807;28;90225;-89
2023/01/04 00:05:19;;;;;;;;;;;6.00;99.90;6.60;101069.00;;;;347504;28;83234;-89
2023/01/04 00:05:31;;;;;;;;;;;6.00;99.90;6.70;101071.00;;;;345712;28;91396;-89
2023/01/04 00:05:43;;;;;;;;;;;6.10;99.90;6.70;101072.00;;;;343234;28;83384;-88
2023/01/04 00:05:56;;;;;;;;;;;6.00;99.90;6.70;101065.00;;;;345613;28;92040;-89
2023/01/04 00:06:09;;;;;;;;;;;6.00;99.90;6.60;101074.00;;;;346260;28;83313;-89
2023/01/04 00:06:21;;;;;;;;;;;6.00;99.90;6.60;101069.00;;;;344365;28;90064;-89
2023/01/04 00:06:33;;;;;;;;;;;6.00;99.90;6.60;101060.00;;;;346231;28;84022;-89
2023/01/04 00:06:44;;;;;;;;;;;6.00;99.90;6.50;101079.00;;;;344422;28;89685;-89
2023/01/04 00:06:56;;;;;;;;;;;6.00;99.90;6.40;101068.00;;;;346135;28;82642;-89
2023/01/04 00:07:08;;;;;;;;;;;6.00;99.90;6.40;101073.00;;;;347141;28;91434;-88
2023/01/04 00:07:20;;;;;;;;;;;6.00;99.90;6.40;101073.00;;;;345521;28;83442;-89
2023/01/04 00:07:32;;;;;;;;;;;6.00;99.90;6.40;101071.00;;;;343022;28;88432;-89
2023/01/04 00:07:43;;;;;;;;;;;6.00;99.90;6.40;101066.00;;;;344933;28;82485;-89
2023/01/04 00:07:55;;;;;;;;;;;6.00;99.90;6.30;101067.00;;;;345410;28;89410;-88
2023/01/04 00:08:07;;;;;;;;;;;6.00;99.90;6.30;101075.00;;;;341977;28;83499;-89
2023/01/04 00:08:19;;;;;;;;;;;6.00;99.90;6.50;101066.00;;;;344437;28;89072;-89
2023/01/04 00:08:31;;;;;;;;;;;6.00;99.90;6.50;101079.00;;;;344503;28;83979;-89
2023/01/04 00:08:43;;;;;;;;;;;6.00;99.90;6.50;101076.00;;;;343019;28;88357;-89
2023/01/04 00:08:55;;;;;;;;;;;6.00;99.90;6.40;101067.00;;;;343403;28;83106;-89
2023/01/04 00:09:06;;;;;;;;;;;6.00;99.90;6.30;101067.00;;;;345826;28;89214;-89
2023/01/04 00:09:18;;;;;;;;;;;6.00;99.90;6.30;101072.00;;;;344838;28;83382;-88
2023/01/04 00:09:30;;;;;;;;;;;6.00;99.90;6.50;101061.00;;;;343047;28;88245;-89
2023/01/04 00:09:42;;;;;;;;;;;6.00;99.90;6.60;101070.00;;;;344701;28;83512;-89
2023/01/04 00:09:54;;;;;;;;;;;6.00;99.90;6.50;101066.00;;;;344326;28;88843;-89
2023/01/04 00:10:06;;;;;;;;;;;6.00;99.90;6.50;101073.00;;;;347353;28;83651;-89
2023/01/04 00:10:18;;;;;;;;;;;5.90;99.90;6.50;101065.00;;;;344421;28;88565;-89
2023/01/04 00:10:30;;;;;;;;;;;6.00;99.90;6.40;101072.00;;;;343476;28;82469;-89
2023/01/04 00:10:42;;;;;;;;;;;6.00;99.90;6.40;101078.00;;;;344255;28;91262;-89
2023/01/04 00:10:59;;;;;;;;;;;6.00;99.90;6.30;101070.00;;;;344479;28;82515;-89
2023/01/04 00:11:18;;;;;;;;;;;6.00;99.90;6.40;101071.00;;;;344353;28;88773;-89
2023/01/04 00:11:30;;;;;;;;;;;5.90;99.90;6.50;101071.00;;;;343486;28;83391;-89
2023/01/04 00:11:42;;;;;;;;;;;6.00;99.90;6.50;101078.00;;;;347198;28;87863;-89
2023/01/04 00:11:53;;;;;;;;;;;5.90;99.90;6.40;101068.00;;;;346086;28;83485;-88
2023/01/04 00:12:05;;;;;;;;;;;5.90;99.90;6.40;101069.00;;;;344368;28;91268;-89
2023/01/04 00:12:17;;;;;;;;;;;5.90;99.90;6.50;101065.00;;;;347583;28;83562;-89
2023/01/04 00:12:29;;;;;;;;;;;5.90;99.90;6.50;101058.00;;;;342895;28;89449;-88
2023/01/04 00:12:40;;;;;;;;;;;5.90;99.90;6.40;101065.00;;;;346164;28;83252;-89
2023/01/04 00:12:52;;;;;;;;;;;5.90;99.90;6.40;101070.00;;;;344418;28;89001;-89
2023/01/04 00:13:04;;;;;;;;;;;5.90;99.90;6.40;101073.00;;;;342165;28;82535;-89
2023/01/04 00:13:16;;;;;;;;;;;5.90;99.90;6.40;101071.00;;;;345742;28;89170;-88
2023/01/04 00:13:29;;;;;;;;;;;5.90;99.90;6.50;101069.00;;;;346141;28;83467;-89
2023/01/04 00:13:40;;;;;;;;;;;5.90;99.90;6.40;101064.00;;;;341640;28;91969;-89
2023/01/04 00:13:55;;;;;;;;;;;5.90;99.90;6.40;101066.00;;;;346214;28;83312;-89
2023/01/04 00:14:08;;;;;;;;;;;5.90;99.90;6.40;101070.00;;;;347192;28;91838;-89
2023/01/04 00:14:20;;;;;;;;;;;5.90;99.90;6.30;101072.00;;;;344840;28;83377;-89
2023/01/04 00:14:31;;;;;;;;;;;5.90;99.90;6.30;101064.00;;;;346979;28;91867;-89
2023/01/04 00:14:43;;;;;;;;;;;5.90;99.90;6.40;101068.00;;;;343426;28;83443;-88
2023/01/04 00:14:55;;;;;;;;;;;6.00;99.90;6.50;101064.00;;;;345640;28;91973;-88
2023/01/04 00:15:07;;;;;;;;;;;5.90;99.90;6.40;101065.00;;;;344626;28;83488;-89
2023/01/04 00:15:19;;;;;;;;;;;5.90;99.90;6.30;101065.00;;;;344177;28;90600;-89
2023/01/04 00:15:31;;;;;;;;;;;5.90;99.90;6.30;101067.00;;;;343331;28;82398;-89
2023/01/04 00:15:43;;;;;;;;;;;5.90;99.90;6.30;101068.00;;;;343096;28;91312;-89
2023/01/04 00:15:55;;;;;;;;;;;5.90;99.90;6.30;101066.00;;;;343290;28;83208;-89
2023/01/04 00:16:12;;;;;;;;;;;5.90;99.90;6.40;101061.00;;;;343079;28;91611;-89
2023/01/04 00:16:26;;;;;;;;;;;5.90;99.90;6.40;101064.00;;;;343431;28;83435;-89
2023/01/04 00:16:38;;;;;;;;;;;5.90;99.90;6.40;101056.00;;;;342921;28;90337;-89
2023/01/04 00:16:49;;;;;;;;;;;5.90;99.90;6.40;101057.00;;;;342128;28;83445;-89
2023/01/04 00:17:01;;;;;;;;;;;5.90;99.90;6.40;101066.00;;;;341580;28;91935;-89
2023/01/04 00:17:13;;;;;;;;;;;5.90;99.90;6.40;101067.00;;;;344779;28;82392;-89
2023/01/04 00:17:25;;;;;;;;;;;5.90;99.90;6.40;101064.00;;;;344432;28;87714;-89
2023/01/04 00:17:37;;;;;;;;;;;5.90;99.90;6.40;101062.00;;;;344751;28;83796;-89
2023/01/04 00:17:48;;;;;;;;;;;5.90;99.90;6.40;101056.00;;;;341681;28;91597;-89
2023/01/04 00:18:00;;;;;;;;;;;5.90;99.90;6.30;101059.00;;;;343353;28;82588;-89
2023/01/04 00:18:13;;;;;;;;;;;5.90;99.90;6.40;101062.00;;;;341713;28;90282;-89
2023/01/04 00:18:24;;;;;;;;;;;5.90;99.90;6.40;101060.00;;;;341803;28;83359;-89
2023/01/04 00:18:36;;;;;;;;;;;5.90;99.90;6.40;101060.00;;;;342811;28;90534;-89
2023/01/04 00:18:49;;;;;;;;;;;5.90;99.90;6.40;101063.00;;;;342073;28;83367;-89
2023/01/04 00:19:00;;;;;;;;;;;5.90;99.90;6.30;101063.00;;;;344275;28;92201;-88
2023/01/04 00:19:12;;;;;;;;;;;5.90;99.90;6.40;101053.00;;;;346096;28;83538;-89
2023/01/04 00:19:24;;;;;;;;;;;5.90;99.90;6.40;101059.00;;;;342971;28;91682;-89
2023/01/04 00:19:35;;;;;;;;;;;5.90;99.90;6.30;101061.00;;;;343297;28;83428;-89
2023/01/04 00:19:47;;;;;;;;;;;5.90;99.90;6.30;101052.00;;;;343006;28;92000;-89
2023/01/04 00:19:59;;;;;;;;;;;5.90;99.90;6.30;101059.00;;;;344705;28;83453;-89
2023/01/04 00:20:11;;;;;;;;;;;5.90;99.90;6.30;101068.00;;;;345687;28;90879;-89
2023/01/04 00:20:23;;;;;;;;;;;5.90;99.90;6.30;101061.00;;;;344765;28;83145;-89
2023/01/04 00:20:34;;;;;;;;;;;5.90;99.90;6.20;101061.00;;;;344402;28;90269;-89
2023/01/04 00:20:46;;;;;;;;;;;5.90;99.90;6.10;101070.00;;;;341984;28;83452;-89
2023/01/04 00:21:14;;;;;;;;;;;5.80;99.90;6.30;101062.00;;;;341508;28;92582;-89
2023/01/04 00:21:27;;;;;;;;;;;5.90;99.90;6.30;101063.00;;;;343301;28;83365;-89
2023/01/04 00:21:39;;;;;;;;;;;5.90;99.90;6.30;101060.00;;;;341426;28;90496;-89
2023/01/04 00:21:52;;;;;;;;;;;5.90;99.90;6.40;101056.00;;;;343573;28;83256;-89
2023/01/04 00:22:04;;;;;;;;;;;5.90;99.90;6.40;101060.00;;;;341629;28;90911;-89
2023/01/04 00:22:15;;;;;;;;;;;5.80;99.90;6.40;101056.00;;;;343350;28;83471;-89
2023/01/04 00:22:27;;;;;;;;;;;5.90;99.90;6.30;101063.00;;;;344417;28;90275;-89
2023/01/04 00:22:39;;;;;;;;;;;5.90;99.90;6.30;101057.00;;;;343311;28;83551;-89
2023/01/04 00:22:50;;;;;;;;;;;5.80;99.90;6.40;101064.00;;;;341606;28;88834;-89
2023/01/04 00:23:02;;;;;;;;;;;5.90;99.90;6.40;101062.00;;;;344811;28;83407;-89
2023/01/04 00:23:14;;;;;;;;;;;5.90;99.90;6.30;101058.00;;;;344266;28;92145;-89
2023/01/04 00:23:26;;;;;;;;;;;5.90;99.90;6.30;101054.00;;;;343462;28;83537;-89
2023/01/04 00:23:39;;;;;;;;;;;5.90;99.90;6.30;101062.00;;;;341378;28;91197;-89
2023/01/04 00:23:52;;;;;;;;;;;5.90;99.90;6.30;101060.00;;;;341975;28;82547;-89
2023/01/04 00:24:05;;;;;;;;;;;5.80;99.90;6.20;101059.00;;;;341663;28;91227;-89
2023/01/04 00:24:16;;;;;;;;;;;5.90;99.90;6.20;101058.00;;;;343471;28;83477;-89
2023/01/04 00:24:28;;;;;;;;;;;5.90;99.90;6.20;101064.00;;;;341658;28;90427;-89
2023/01/04 00:24:40;;;;;;;;;;;5.80;99.90;6.30;101054.00;;;;343277;28;83567;-89
2023/01/04 00:24:52;;;;;;;;;;;5.80;99.90;6.40;101060.00;;;;343080;28;89697;-89
2023/01/04 00:25:04;;;;;;;;;;;5.80;99.90;6.20;101065.00;;;;342096;28;83264;-89
2023/01/04 00:25:16;;;;;;;;;;;5.80;99.90;6.30;101058.00;;;;342892;28;92472;-89
2023/01/04 00:25:27;;;;;;;;;;;5.80;99.90;6.40;101063.00;;;;344741;28;83051;-89
2023/01/04 00:25:39;;;;;;;;;;;5.80;99.90;6.30;101060.00;;;;342940;28;90023;-89
2023/01/04 00:25:51;;;;;;;;;;;5.80;99.90;6.20;101056.00;;;;344757;28;82530;-88
2023/01/04 00:26:15;;;;;;;;;;;5.80;99.90;6.20;101064.00;;;;342771;28;90262;-89
2023/01/04 00:26:28;;;;;;;;;;;5.80;99.90;6.40;101052.00;;;;340449;28;83495;-89
2023/01/04 00:26:41;;;;;;;;;;;5.80;99.90;6.40;101053.00;;;;341434;28;91705;-89
2023/01/04 00:26:53;;;;;;;;;;;5.80;99.90;6.40;101051.00;;;;342059;28;83257;-89
2023/01/04 00:27:05;;;;;;;;;;;5.80;99.90;6.50;101052.00;;;;344200;28;90389;-88
2023/01/04 00:27:16;;;;;;;;;;;5.80;99.90;6.50;101046.00;;;;342058;28;83401;-89
2023/01/04 00:27:28;;;;;;;;;;;5.80;99.90;6.50;101063.00;;;;340301;28;92376;-89
2023/01/04 00:27:41;;;;;;;;;;;5.80;99.90;6.30;101054.00;;;;346210;28;83138;-89
2023/01/04 00:27:52;;;;;;;;;;;5.80;99.90;6.30;101063.00;;;;342828;28;92149;-89
2023/01/04 00:28:04;;;;;;;;;;;5.80;99.90;6.30;101055.00;;;;340814;28;83351;-89
2023/01/04 00:28:16;;;;;;;;;;;5.80;99.90;6.20;101051.00;;;;341578;28;90512;-89
2023/01/04 00:28:28;;;;;;;;;;;5.80;99.90;6.40;101056.00;;;;346077;28;83453;-89
2023/01/04 00:28:40;;;;;;;;;;;5.80;99.90;6.30;101055.00;;;;342904;28;91699;-89
2023/01/04 00:28:55;;;;;;;;;;;5.90;99.90;6.20;101050.00;;;;340641;28;83455;-89
2023/01/04 00:29:09;;;;;;;;;;;5.80;99.90;6.30;101057.00;;;;341700;28;90656;-89
2023/01/04 00:29:21;;;;;;;;;;;5.80;99.90;6.40;101056.00;;;;343305;28;83478;-89
2023/01/04 00:29:32;;;;;;;;;;;5.90;99.90;6.30;101053.00;;;;343035;28;92320;-89
2023/01/04 00:29:44;;;;;;;;;;;5.90;99.90;6.20;101062.00;;;;343397;28;83533;-89
2023/01/04 00:29:56;;;;;;;;;;;5.80;99.90;6.20;101057.00;;;;344204;28;92156;-88
2023/01/04 00:30:08;;;;;;;;;;;5.90;99.90;6.20;101054.00;;;;343557;28;83431;-89
2023/01/04 00:30:20;;;;;;;;;;;5.80;99.90;6.20;101054.00;;;;342943;28;92182;-89
2023/01/04 00:30:32;;;;;;;;;;;5.80;99.90;6.10;101051.00;;;;343410;28;82306;-89
2023/01/04 00:30:43;;;;;;;;;;;5.80;99.90;6.10;101060.00;;;;341566;28;91327;-89
2023/01/04 00:30:55;;;;;;;;;;;5.80;99.90;6.10;101050.00;;;;344616;28;82535;-89
2023/01/04 00:31:08;;;;;;;;;;;5.80;99.90;6.00;101057.00;;;;341678;28;91238;-89
2023/01/04 00:31:21;;;;;;;;;;;5.80;99.90;6.00;101054.00;;;;344762;28;82283;-89
2023/01/04 00:31:33;;;;;;;;;;;5.80;99.90;6.00;101056.00;;;;344293;28;91556;-89
2023/01/04 00:31:45;;;;;;;;;;;5.80;99.90;6.10;101052.00;;;;340652;28;83451;-89
2023/01/04 00:31:57;;;;;;;;;;;5.80;99.90;6.00;101055.00;;;;342959;28;90400;-89
2023/01/04 00:32:09;;;;;;;;;;;5.80;99.90;6.00;101058.00;;;;343386;28;83372;-89
2023/01/04 00:32:20;;;;;;;;;;;5.80;99.90;6.00;101056.00;;;;343010;28;92321;-89
2023/01/04 00:32:32;;;;;;;;;;;5.70;99.90;5.90;101051.00;;;;346103;28;83242;-89
2023/01/04 00:32:44;;;;;;;;;;;5.70;99.90;6.00;101059.00;;;;341670;28;88769;-89
2023/01/04 00:32:56;;;;;;;;;;;5.70;99.90;5.90;101061.00;;;;344826;28;82499;-89
2023/01/04 00:33:08;;;;;;;;;;;5.70;99.90;5.90;101055.00;;;;340332;28;90708;-89
2023/01/04 00:33:20;;;;;;;;;;;5.70;99.90;5.90;101058.00;;;;344761;28;82714;-89
2023/01/04 00:33:32;;;;;;;;;;;5.70;99.90;5.90;101056.00;;;;341546;28;92629;-89
2023/01/04 00:33:44;;;;;;;;;;;5.70;99.90;6.00;101051.00;;;;340532;28;83264;-89
2023/01/04 00:33:56;;;;;;;;;;;5.70;99.90;6.00;101055.00;;;;344547;28;91749;-89
2023/01/04 00:34:08;;;;;;;;;;;5.70;99.90;6.00;101054.00;;;;343425;28;83375;-89
2023/01/04 00:34:20;;;;;;;;;;;5.70;99.90;5.90;101056.00;;;;341419;28;90692;-89
2023/01/04 00:34:32;;;;;;;;;;;5.70;99.90;6.00;101061.00;;;;343359;28;83501;-89
2023/01/04 00:34:43;;;;;;;;;;;5.60;99.90;5.90;101053.00;;;;344259;28;91529;-89
2023/01/04 00:34:55;;;;;;;;;;;5.60;99.90;5.90;101058.00;;;;344979;28;83405;-89
2023/01/04 00:35:10;;;;;;;;;;;5.60;99.90;5.90;101048.00;;;;343850;28;91647;-89
2023/01/04 00:35:35;;;;;;;;;;;5.60;99.90;5.90;101057.00;;;;343523;28;83372;-89
2023/01/04 00:36:04;;;;;;;;;;;5.60;99.90;6.00;101050.00;;;;341976;28;91877;-88
2023/01/04 00:36:17;;;;;;;;;;;5.60;99.90;6.00;101059.00;;;;341312;28;82516;-88
2023/01/04 00:36:29;;;;;;;;;;;5.60;99.90;6.10;101044.00;;;;342179;28;90148;-89
2023/01/04 00:36:41;;;;;;;;;;;5.60;99.90;6.10;101058.00;;;;342611;28;82579;-88
2023/01/04 00:36:53;;;;;;;;;;;5.60;99.90;6.00;101059.00;;;;342115;28;91793;-89
2023/01/04 00:37:05;;;;;;;;;;;5.60;99.90;6.10;101057.00;;;;343776;28;83372;-89
2023/01/04 00:37:16;;;;;;;;;;;5.60;99.90;6.00;101055.00;;;;341879;28;91675;-89
2023/01/04 00:37:29;;;;;;;;;;;5.60;99.90;6.00;101048.00;;;;341061;28;82423;-89
2023/01/04 00:37:55;;;;;;;;;;;5.60;99.90;6.00;101052.00;;;;342974;28;89399;-89
2023/01/04 00:38:07;;;;;;;;;;;5.60;99.90;6.00;101055.00;;;;346144;28;83408;-89
2023/01/04 00:38:19;;;;;;;;;;;5.60;99.90;6.00;101051.00;;;;343168;28;92155;-89
2023/01/04 00:38:31;;;;;;;;;;;5.60;99.90;6.00;101050.00;;;;343552;28;82611;-89
2023/01/04 00:38:43;;;;;;;;;;;5.60;99.90;6.00;101054.00;;;;342984;28;90211;-89
2023/01/04 00:39:08;;;;;;;;;;;5.60;99.90;5.90;101060.00;;;;343151;28;83476;-90
2023/01/04 00:39:22;;;;;;;;;;;5.60;99.90;5.90;101050.00;;;;341749;28;90740;-89
2023/01/04 00:39:34;;;;;;;;;;;5.60;99.90;5.90;101057.00;;;;342772;28;83325;-89
2023/01/04 00:39:46;;;;;;;;;;;5.50;99.90;5.90;101054.00;;;;343527;28;89081;-90
2023/01/04 00:39:58;;;;;;;;;;;5.50;99.90;5.80;101044.00;;;;342030;28;83526;-89
2023/01/04 00:40:10;;;;;;;;;;;5.50;99.90;5.80;101056.00;;;;344392;28;88815;-89
2023/01/04 00:40:22;;;;;;;;;;;5.50;99.90;5.80;101055.00;;;;342065;28;83429;-89
2023/01/04 00:40:33;;;;;;;;;;;5.50;99.90;5.90;101052.00;;;;341528;28;90100;-89
2023/01/04 00:40:45;;;;;;;;;;;5.50;99.90;5.90;101055.00;;;;345949;28;83512;-89
2023/01/04 00:40:57;;;;;;;;;;;5.50;99.90;5.80;101054.00;;;;342740;28;89794;-89
2023/01/04 00:41:09;;;;;;;;;;;5.50;99.90;5.80;101056.00;;;;340786;28;82430;-88
2023/01/04 00:41:48;;;;;;;;;;;5.50;99.90;5.80;101058.00;;;;344219;28;91277;-90
2023/01/04 00:42:10;;;;;;;;;;;5.50;99.90;5.80;101052.00;;;;343389;28;82569;-89
2023/01/04 00:42:21;;;;;;;;;;;5.50;99.90;5.80;101052.00;;;;343008;28;89186;-89
2023/01/04 00:42:33;;;;;;;;;;;5.50;99.90;5.90;101058.00;;;;342068;28;83279;-89
2023/01/04 00:42:45;;;;;;;;;;;5.50;99.90;5.90;101051.00;;;;340424;28;88231;-89
2023/01/04 00:42:57;;;;;;;;;;;5.50;99.90;5.90;101057.00;;;;342006;28;83547;-89
2023/01/04 00:43:09;;;;;;;;;;;5.50;99.90;5.80;101055.00;;;;341503;28;93268;-88
2023/01/04 00:43:20;;;;;;;;;;;5.50;99.90;5.80;101049.00;;;;341783;28;83314;-89
2023/01/04 00:43:32;;;;;;;;;;;5.50;99.90;5.80;101050.00;;;;343117;28;88280;-89
2023/01/04 00:43:44;;;;;;;;;;;5.50;99.90;5.90;101048.00;;;;342159;28;83489;-89
2023/01/04 00:43:57;;;;;;;;;;;5.40;99.90;5.80;101055.00;;;;340172;28;89495;-89
2023/01/04 00:44:09;;;;;;;;;;;5.40;99.90;5.90;101062.00;;;;340816;28;82480;-90
2023/01/04 00:44:21;;;;;;;;;;;5.40;99.90;5.90;101064.00;;;;340323;28;88793;-89
2023/01/04 00:44:33;;;;;;;;;;;5.40;99.90;5.90;101052.00;;;;343323;28;83459;-89
2023/01/04 00:44:45;;;;;;;;;;;5.50;99.90;5.80;101040.00;;;;343055;28;89160;-89
2023/01/04 00:44:56;;;;;;;;;;;5.50;99.90;5.80;101049.00;;;;344783;28;83414;-89
2023/01/04 00:45:09;;;;;;;;;;;5.40;99.90;5.80;101055.00;;;;342989;28;88943;-89
2023/01/04 00:45:20;;;;;;;;;;;5.40;99.90;5.80;101054.00;;;;343214;28;82546;-89
2023/01/04 00:45:32;;;;;;;;;;;5.50;99.90;5.80;101056.00;;;;342801;28;87640;-89
2023/01/04 00:45:44;;;;;;;;;;;5.50;99.90;5.80;101056.00;;;;342118;28;83173;-89
2023/01/04 00:45:56;;;;;;;;;;;5.40;99.90;5.80;101059.00;;;;338896;28;88030;-89
2023/01/04 00:46:10;;;;;;;;;;;5.40;99.90;5.90;101054.00;;;;340793;28;83212;-89
2023/01/04 00:46:22;;;;;;;;;;;5.40;99.90;5.90;101059.00;;;;344392;28;89230;-89
2023/01/04 00:46:34;;;;;;;;;;;5.40;99.90;5.90;101059.00;;;;344724;28;83970;-89
2023/01/04 00:46:46;;;;;;;;;;;5.40;99.90;5.90;101051.00;;;;341680;28;88185;-89
2023/01/04 00:46:58;;;;;;;;;;;5.40;99.90;6.00;101059.00;;;;344776;28;82464;-89
2023/01/04 00:47:10;;;;;;;;;;;5.40;99.90;6.00;101051.00;;;;342885;28;90521;-89
2023/01/04 00:47:22;;;;;;;;;;;5.40;99.90;5.90;101055.00;;;;343476;28;82499;-89
2023/01/04 00:47:34;;;;;;;;;;;5.40;99.90;6.00;101061.00;;;;343024;28;89415;-89
2023/01/04 00:47:46;;;;;;;;;;;5.40;99.90;6.00;101057.00;;;;342744;28;83605;-89
2023/01/04 00:47:58;;;;;;;;;;;5.40;99.90;6.00;101059.00;;;;339779;28;88409;-89
2023/01/04 00:48:09;;;;;;;;;;;5.40;99.90;6.00;101052.00;;;;343456;28;82563;-89
2023/01/04 00:48:21;;;;;;;;;;;5.40;99.90;6.00;101053.00;;;;341693;28;88297;-89
2023/01/04 00:48:33;;;;;;;;;;;5.40;99.90;6.00;101064.00;;;;343241;28;82483;-89
2023/01/04 00:48:51;;;;;;;;;;;5.40;99.90;6.00;101062.00;;;;343085;28;87686;-89
2023/01/04 00:49:11;;;;;;;;;;;5.50;99.90;5.90;101054.00;;;;344214;28;83523;-89
2023/01/04 00:49:22;;;;;;;;;;;5.40;99.90;5.90;101056.00;;;;342956;28;89578;-89
2023/01/04 00:49:34;;;;;;;;;;;5.50;99.90;6.00;101062.00;;;;346134;28;83264;-90
2023/01/04 00:49:46;;;;;;;;;;;5.40;99.90;5.90;101058.00;;;;343080;28;89047;-89
2023/01/04 00:49:58;;;;;;;;;;;5.40;99.90;5.90;101055.00;;;;341935;28;83357;-90
2023/01/04 00:50:10;;;;;;;;;;;5.50;99.90;5.90;101060.00;;;;345710;28;91975;-89
2023/01/04 00:50:21;;;;;;;;;;;5.40;99.90;5.80;101066.00;;;;343520;28;83390;-89
2023/01/04 00:50:33;;;;;;;;;;;5.40;99.90;5.80;101065.00;;;;342969;28;88757;-89
2023/01/04 00:50:46;;;;;;;;;;;5.40;99.90;5.80;101057.00;;;;340799;28;83521;-89
2023/01/04 00:50:59;;;;;;;;;;;5.40;99.90;5.80;101066.00;;;;342705;28;88698;-89
2023/01/04 00:51:10;;;;;;;;;;;5.50;99.90;5.90;101054.00;;;;343340;28;83422;-89
2023/01/04 00:51:22;;;;;;;;;;;5.40;99.90;5.90;101051.00;;;;345068;28;89168;-90
2023/01/04 00:51:34;;;;;;;;;;;5.40;99.90;5.90;101057.00;;;;343369;28;83382;-89
2023/01/04 00:51:46;;;;;;;;;;;5.40;99.90;5.90;101054.00;;;;344076;28;90888;-89
2023/01/04 00:51:58;;;;;;;;;;;5.40;99.90;5.90;101067.00;;;;344370;28;83492;-89
2023/01/04 00:52:10;;;;;;;;;;;5.50;99.90;5.90;101056.00;;;;345314;28;89163;-90
2023/01/04 00:52:22;;;;;;;;;;;5.50;99.90;5.90;101058.00;;;;343523;28;82386;-90
2023/01/04 00:52:33;;;;;;;;;;;5.50;99.90;5.90;101052.00;;;;344304;28;88320;-89
2023/01/04 00:52:48;;;;;;;;;;;5.40;99.90;5.90;101054.00;;;;346101;28;82502;-90
2023/01/04 00:53:00;;;;;;;;;;;5.40;99.90;6.00;101056.00;;;;345399;28;90531;-89
2023/01/04 00:53:12;;;;;;;;;;;5.50;99.90;6.00;101059.00;;;;343242;28;83594;-89
2023/01/04 00:53:23;;;;;;;;;;;5.40;99.90;6.00;101059.00;;;;341543;28;89118;-90
2023/01/04 00:53:35;;;;;;;;;;;5.40;99.90;5.90;101051.00;;;;344769;28;82547;-89
2023/01/04 00:53:47;;;;;;;;;;;5.40;99.90;5.90;101059.00;;;;347139;28;87878;-89
2023/01/04 00:54:00;;;;;;;;;;;5.50;99.90;5.80;101058.00;;;;343330;28;83360;-89
2023/01/04 00:54:13;;;;;;;;;;;5.40;99.90;5.90;101055.00;;;;344203;28;87855;-90
2023/01/04 00:54:24;;;;;;;;;;;5.40;99.90;5.90;101062.00;;;;344924;28;82224;-89
2023/01/04 00:54:36;;;;;;;;;;;5.40;99.90;5.90;101055.00;;;;342672;28;90119;-89
2023/01/04 00:54:48;;;;;;;;;;;5.40;99.90;5.80;101058.00;;;;344257;28;83597;-90
2023/01/04 00:55:00;;;;;;;;;;;5.40;99.90;5.80;101059.00;;;;342844;28;89160;-89
2023/01/04 00:55:11;;;;;;;;;;;5.40;99.90;5.80;101049.00;;;;340506;28;83250;-89
2023/01/04 00:55:23;;;;;;;;;;;5.40;99.90;5.90;101054.00;;;;345643;28;90240;-89
2023/01/04 00:55:35;;;;;;;;;;;5.40;99.90;5.80;101053.00;;;;347268;28;83554;-89
2023/01/04 00:55:47;;;;;;;;;;;5.40;99.90;5.80;101051.00;;;;341549;28;92345;-89
2023/01/04 00:56:00;;;;;;;;;;;5.40;99.90;5.80;101052.00;;;;343287;28;83357;-89
2023/01/04 00:56:12;;;;;;;;;;;5.40;99.90;5.90;101060.00;;;;344126;28;89969;-89
2023/01/04 00:56:23;;;;;;;;;;;5.40;99.90;5.80;101055.00;;;;343401;28;83213;-89
2023/01/04 00:56:35;;;;;;;;;;;5.40;99.90;5.80;101054.00;;;;343023;28;87493;-89
2023/01/04 00:56:47;;;;;;;;;;;5.40;99.90;5.90;101056.00;;;;344755;28;83190;-89
2023/01/04 00:57:00;;;;;;;;;;;5.40;99.90;6.00;101052.00;;;;342580;28;88469;-89
2023/01/04 00:57:12;;;;;;;;;;;5.40;99.90;6.00;101055.00;;;;342036;28;83448;-89
2023/01/04 00:57:23;;;;;;;;;;;5.40;99.90;5.90;101050.00;;;;344335;28;89468;-88
2023/01/04 00:57:35;;;;;;;;;;;5.40;99.90;5.90;101052.00;;;;344775;28;82480;-89
2023/01/04 00:57:47;;;;;;;;;;;5.40;99.90;5.80;101056.00;;;;341716;28;88233;-90
2023/01/04 00:57:59;;;;;;;;;;;5.40;99.90;5.80;101062.00;;;;343368;28;83243;-89
2023/01/04 00:58:10;;;;;;;;;;;5.40;99.90;5.80;101055.00;;;;343078;28;88791;-89
2023/01/04 00:58:22;;;;;;;;;;;5.40;99.90;5.90;101049.00;;;;345822;28;83314;-90
2023/01/04 00:58:34;;;;;;;;;;;5.40;99.90;5.90;101060.00;;;;344311;28;88494;-89
2023/01/04 00:58:46;;;;;;;;;;;5.40;99.90;5.80;101056.00;;;;343404;28;83320;-89
2023/01/04 00:58:58;;;;;;;;;;;5.40;99.90;5.80;101054.00;;;;345816;28;87640;-89
2023/01/04 00:59:15;;;;;;;;;;;5.40;99.90;5.80;101056.00;;;;344314;28;83364;-89
2023/01/04 00:59:26;;;;;;;;;;;5.40;99.90;5.80;101058.00;;;;342929;28;89729;-89
2023/01/04 00:59:38;;;;;;;;;;;5.40;99.90;5.80;101050.00;;;;344373;28;83512;-89
2023/01/04 00:59:50;;;;;;;;;;;5.40;99.90;5.90;101053.00;;;;342809;28;88025;-89
2023/01/04 01:00:02;;;;;;;;;;;5.40;99.90;5.90;101056.00;;;;340394;28;83481;-89
2023/01/04 01:00:15;;;;;;;;;;;5.40;99.90;5.90;101055.00;;;;342738;28;91558;-89
2023/01/04 01:00:27;;;;;;;;;;;5.40;99.90;5.80;101054.00;;;;346251;28;82165;-89
2023/01/04 01:00:38;;;;;;;;;;;5.40;99.90;5.90;101052.00;;;;344099;28;89444;-89
2023/01/04 01:00:50;;;;;;;;;;;5.40;99.90;5.80;101059.00;;;;345571;28;83456;-89
2023/01/04 01:01:06;;;;;;;;;;;5.40;99.90;5.80;101052.00;;;;342718;28;89992;-89
2023/01/04 01:01:18;;;;;;;;;;;5.40;99.90;5.90;101053.00;;;;344724;28;83541;-89
2023/01/04 01:01:31;;;;;;;;;;;5.30;99.90;6.00;101053.00;;;;345705;28;90315;-89
2023/01/04 01:01:43;;;;;;;;;;;5.30;99.90;6.00;101051.00;;;;343577;28;83319;-89
2023/01/04 01:01:55;;;;;;;;;;;5.40;99.90;5.90;101053.00;;;;342978;28;90259;-89
2023/01/04 01:02:07;;;;;;;;;;;5.40;99.90;5.90;101053.00;;;;343511;28;83508;-89
2023/01/04 01:02:19;;;;;;;;;;;5.40;99.90;5.90;101049.00;;;;342942;28;89899;-89
2023/01/04 01:02:31;;;;;;;;;;;5.40;99.90;5.90;101059.00;;;;346127;28;83317;-89
2023/01/04 01:02:43;;;;;;;;;;;5.40;99.90;5.80;101050.00;;;;346773;28;91092;-89
2023/01/04 01:02:55;;;;;;;;;;;5.40;99.90;5.90;101053.00;;;;341740;28;83585;-89